createdAt,value
2023-09-29T00:02:56.274Z,17.07
2023-09-29T00:13:00.686Z,17.06
2023-09-29T00:23:04.042Z,17.22
2023-09-29T00:33:08.493Z,17.29
2023-09-29T00:43:12.552Z,17.24
2023-09-29T00:53:19.124Z,17.34
2023-09-29T01:03:22.260Z,17.29
2023-09-29T01:13:26.479Z,17.14
2023-09-29T01:23:32.785Z,17.20
2023-09-29T01:33:35.929Z,17.24
2023-09-29T01:43:40.731Z,17.30
2023-09-29T01:53:43.943Z,17.23
2023-09-29T02:03:49.488Z,17.24
2023-09-29T02:13:52.457Z,17.28
2023-09-29T02:23:56.626Z,17.24
2023-09-29T02:33:59.883Z,17.23
2023-09-29T02:44:04.116Z,17.15
2023-09-29T02:54:07.881Z,17.10
2023-09-29T03:04:12.872Z,17.08
2023-09-29T03:14:17.292Z,17.02
2023-09-29T03:24:21.460Z,17.02
2023-09-29T03:34:24.863Z,17.03
2023-09-29T03:44:29.074Z,17.08
2023-09-29T03:54:31.796Z,17.14
2023-09-29T04:04:36.071Z,17.06
2023-09-29T04:14:38.874Z,16.98
2023-09-29T04:24:43.595Z,16.94
2023-09-29T04:34:46.481Z,16.93
2023-09-29T04:44:50.648Z,16.91
2023-09-29T04:54:53.431Z,16.87
2023-09-29T05:04:57.522Z,16.83
2023-09-29T05:15:00.407Z,16.83
2023-09-29T05:25:05.456Z,16.79
2023-09-29T05:35:09.770Z,16.79
2023-09-29T05:45:14.224Z,16.82
2023-09-29T05:55:17.095Z,16.94
2023-09-29T06:05:21.969Z,17.09
2023-09-29T06:15:25.356Z,17.12
2023-09-29T06:25:29.498Z,17.13
2023-09-29T06:35:32.626Z,17.11
2023-09-29T06:45:57.098Z,17.17
2023-09-29T06:56:00.271Z,17.49
2023-09-29T07:06:04.585Z,17.92
2023-09-29T07:16:07.426Z,18.44
2023-09-29T07:26:11.565Z,18.69
2023-09-29T07:36:14.394Z,19.22
2023-09-29T07:46:18.593Z,19.63
2023-09-29T07:56:21.411Z,20.06
2023-09-29T08:06:26.669Z,20.13
2023-09-29T08:16:29.564Z,19.86
2023-09-29T08:26:33.852Z,19.86
2023-09-29T08:36:36.611Z,20.10
2023-09-29T08:46:42.117Z,20.37
2023-09-29T08:56:46.064Z,20.40
2023-09-29T09:06:50.472Z,20.66
2023-09-29T09:16:53.251Z,21.00
2023-09-29T09:27:03.683Z,22.56
2023-09-29T09:37:07.781Z,22.21
2023-09-29T09:47:15.490Z,22.53
2023-09-29T09:57:21.397Z,23.96
2023-09-29T10:07:26.692Z,24.60
2023-09-29T10:17:40.712Z,27.35
2023-09-29T10:27:50.559Z,27.32
2023-09-29T10:37:56.753Z,28.24
2023-09-29T10:48:04.459Z,27.51
2023-09-29T10:58:07.879Z,29.40
2023-09-29T11:08:14.199Z,29.18
2023-09-29T11:18:30.574Z,27.46
2023-09-29T11:28:34.828Z,26.54
2023-09-29T11:38:37.839Z,24.10
2023-09-29T11:48:43.437Z,22.83
2023-09-29T11:58:46.341Z,21.72
2023-09-29T12:08:50.742Z,21.64
2023-09-29T12:18:53.687Z,21.47
2023-09-29T12:28:57.930Z,22.29
2023-09-29T12:39:02.510Z,21.73
2023-09-29T12:49:07.350Z,21.95
2023-09-29T12:59:12.211Z,23.05
2023-09-29T13:09:17.094Z,22.53
2023-09-29T13:19:22.936Z,22.63
2023-09-29T13:29:28.992Z,23.70
2023-09-29T13:39:31.746Z,22.99
2023-09-29T13:49:35.983Z,22.98
2023-09-29T13:59:38.863Z,22.79
2023-09-29T14:09:43.220Z,22.75
2023-09-29T14:19:46.539Z,22.24
2023-09-29T14:29:51.331Z,21.35
2023-09-29T14:39:55.523Z,20.97
2023-09-29T14:50:00.718Z,20.66
2023-09-29T15:00:06.001Z,20.59
2023-09-29T15:10:11.134Z,20.52
2023-09-29T15:20:16.214Z,20.41
2023-09-29T15:30:20.500Z,20.39
2023-09-29T15:40:23.334Z,20.41
2023-09-29T15:50:27.432Z,20.58
2023-09-29T16:00:30.724Z,20.49
2023-09-29T16:10:36.356Z,20.36
2023-09-29T16:20:39.213Z,20.17
2023-09-29T16:30:44.004Z,19.93
2023-09-29T16:40:51.726Z,19.89
2023-09-29T16:50:55.947Z,19.69
2023-09-29T17:00:59.465Z,19.66
2023-09-29T17:11:12.806Z,19.50
2023-09-29T17:21:17.030Z,19.48
2023-09-29T17:31:21.316Z,19.31
2023-09-29T17:41:24.517Z,19.11
2023-09-29T17:51:28.614Z,19.05
2023-09-29T18:01:31.943Z,18.86
2023-09-29T18:11:36.279Z,18.19
2023-09-29T18:21:39.082Z,17.86
2023-09-29T18:31:43.652Z,17.08
2023-09-29T18:41:46.416Z,16.75
2023-09-29T18:51:50.559Z,16.60
2023-09-29T19:01:53.369Z,16.31
2023-09-29T19:12:02.894Z,16.17
2023-09-29T19:22:05.732Z,15.90
2023-09-29T19:32:09.893Z,15.72
2023-09-29T19:42:12.667Z,15.80
2023-09-29T19:52:17.038Z,15.80
2023-09-29T20:02:19.864Z,15.77
2023-09-29T20:12:24.047Z,15.62
2023-09-29T20:22:26.867Z,15.74
2023-09-29T20:32:31.114Z,15.77
2023-09-29T20:42:33.927Z,15.79
2023-09-29T20:52:38.634Z,15.81
2023-09-29T21:02:42.562Z,15.65
2023-09-29T21:12:47.214Z,15.49
2023-09-29T21:22:53.969Z,15.49
2023-09-29T21:32:58.655Z,15.39
2023-09-29T21:43:01.596Z,15.46
2023-09-29T21:53:05.809Z,15.41
2023-09-29T22:03:09.547Z,15.49
2023-09-29T22:13:13.916Z,15.45
2023-09-29T22:23:18.189Z,15.41
2023-09-29T22:33:22.547Z,15.37
2023-09-29T22:43:25.324Z,15.39
2023-09-29T22:53:29.515Z,15.19
2023-09-29T23:03:32.412Z,15.13
2023-09-29T23:13:38.570Z,14.80
2023-09-29T23:23:42.050Z,14.81
2023-09-29T23:33:46.175Z,14.50
2023-09-29T23:43:49.310Z,14.36
2023-09-29T23:53:53.328Z,14.16
